Margot — WDJ7853 — position and weather

sailwx.info

Track history (hours):
 
Tides and Currents Weather Stations Pressure Air Temp Water Temp Dewpoint Dewpoint Depression Visibility Wind Speed Wind Dir Waves Ship Positions

Margot

Owner: Easterbrook, Jon M, Auburn, CA. More information available from US FCC via Universal Licensing System and Coast Guard Vessel Documentation Center.

Last reported at 2018-May-20 21:45 UTC. Time now 2018-Jun-19 06:46 UTC.
Position N 37°50' W 122°19'.
Warning: this ship's position is 29 days out of date.

Length 13 m.

Type: Pleasure craft. MMSI: 368010730.

Date/timePositionNaut miles runAvg speedWind from/ knotsBaromVisibWave heightAir tempDewpointWater temp
2018-May-20 21:45N 37°50' W 122°19'0 1.5
2018-May-20 21:30N 37°51' W 122°19'4 7.4
2018-May-20 21:00N 37°48' W 122°22'4 8.4
2018-May-20 20:30N 37°49' W 122°27'3 0.1
2018-May-19 23:17N 37°51' W 122°29'0 0.0
2018-May-19 23:00N 37°51' W 122°29'3 5.6
2018-May-19 22:30N 37°52' W 122°25'0 0.4
2018-May-19 21:58N 37°52' W 122°25'0 0.0
2018-May-19 21:28N 37°52' W 122°25'0 0.0
2018-May-19 20:58N 37°52' W 122°25'0 0.2
2018-May-19 20:29N 37°52' W 122°25'3 5.5
2018-May-19 19:58N 37°50' W 122°22'3 6.3
2018-May-19 19:30N 37°51' W 122°19'  
Track history (hours):
 
Tides and Currents Weather Stations Pressure Air Temp Water Temp Dewpoint Dewpoint Depression Visibility Wind Speed Wind Dir Waves Ship Positions

Margot

Owner: Easterbrook, Jon M, Auburn, CA. More information available from US FCC via Universal Licensing System and Coast Guard Vessel Documentation Center.

Last reported at 2018-May-20 21:45 UTC. Time now 2018-Jun-19 06:46 UTC.
Position N 37°50' W 122°19'.
Warning: this ship's position is 29 days out of date.

Length 13 m.

Type: Pleasure craft. MMSI: 368010730.

Date/timePositionNaut miles runAvg speedWind from/ knotsBaromVisibWave heightAir tempDewpointWater temp
2018-May-20 21:45N 37°50' W 122°19'0 1.5
2018-May-20 21:30N 37°51' W 122°19'4 7.4
2018-May-20 21:00N 37°48' W 122°22'4 8.4
2018-May-20 20:30N 37°49' W 122°27'3 0.1
2018-May-19 23:17N 37°51' W 122°29'0 0.0
2018-May-19 23:00N 37°51' W 122°29'3 5.6
2018-May-19 22:30N 37°52' W 122°25'0 0.4
2018-May-19 21:58N 37°52' W 122°25'0 0.0
2018-May-19 21:28N 37°52' W 122°25'0 0.0
2018-May-19 20:58N 37°52' W 122°25'0 0.2
2018-May-19 20:29N 37°52' W 122°25'3 5.5
2018-May-19 19:58N 37°50' W 122°22'3 6.3
2018-May-19 19:30N 37°51' W 122°19'  

Dump ship's entire track history